Time;durP1;ratioP1;P1;durP2;ratioP2;P2;SDS_P1;SDS_P2;PMS_P1;PMS_P2;Temp;Humidity;BMP_temperature;BMP_pressure;BME280_temperature;BME280_humidity;BME280_pressure;Samples;Min_cycle;Max_cycle;Signal;HPM_P1;HPM_P2
2022/12/08 00:09:59;;;;;;;83.55;34.08;;;;;;;;;;10398897;28;20022;-75
2022/12/08 00:15:00;;;;;;;87.97;37.92;;;;;;;;;;10397335;28;20509;-76
2022/12/08 00:20:00;;;;;;;82.90;34.58;;;;;;;;;;10388037;28;20029;-75
2022/12/08 00:25:00;;;;;;;89.72;38.40;;;;;;;;;;10385666;28;20032;-75
2022/12/08 00:30:00;;;;;;;97.05;41.20;;;;;;;;;;10384980;28;20033;-76
2022/12/08 00:35:01;;;;;;;93.28;40.47;;;;;;;;;;10385521;28;20033;-76
2022/12/08 00:40:01;;;;;;;100.25;40.65;;;;;;;;;;10401451;28;20061;-75
2022/12/08 00:45:01;;;;;;;89.00;40.47;;;;;;;;;;10385956;28;20071;-78
2022/12/08 00:50:02;;;;;;;93.50;39.50;;;;;;;;;;10357802;28;20079;-78
2022/12/08 00:55:03;;;;;;;91.15;38.42;;;;;;;;;;10368451;28;20780;-80
2022/12/08 01:00:04;;;;;;;92.28;38.53;;;;;;;;;;10385655;28;20026;-76
2022/12/08 01:05:05;;;;;;;92.22;38.35;;;;;;;;;;10384088;28;20051;-75
2022/12/08 01:10:06;;;;;;;85.28;36.17;;;;;;;;;;10379928;28;20526;-75
2022/12/08 01:15:08;;;;;;;83.60;37.22;;;;;;;;;;10398280;28;20045;-75
2022/12/08 01:20:08;;;;;;;81.45;35.45;;;;;;;;;;10383548;28;20602;-76
2022/12/08 01:25:09;;;;;;;80.45;36.40;;;;;;;;;;10374615;28;20105;-74
2022/12/08 01:30:09;;;;;;;86.37;35.23;;;;;;;;;;10383895;28;20029;-80
2022/12/08 01:35:09;;;;;;;82.00;35.25;;;;;;;;;;10378747;28;20390;-75
2022/12/08 01:40:10;;;;;;;78.53;34.22;;;;;;;;;;10401077;28;20033;-78
2022/12/08 01:45:30;;;;;;;80.23;32.97;;;;;;;;;;10383401;28;20076;-81
2022/12/08 01:50:30;;;;;;;83.07;33.97;;;;;;;;;;10382524;28;20298;-74
2022/12/08 01:55:41;;;;;;;76.53;33.63;;;;;;;;;;10383547;28;20115;-77
2022/12/08 02:00:42;;;;;;;77.68;30.75;;;;;;;;;;10381996;28;20368;-75
2022/12/08 02:05:44;;;;;;;76.05;32.50;;;;;;;;;;10371111;28;20018;-77
2022/12/08 02:10:45;;;;;;;69.68;29.88;;;;;;;;;;10376922;28;20505;-80
2022/12/08 02:16:10;;;;;;;71.72;32.08;;;;;;;;;;10376164;28;20049;-77
2022/12/08 02:21:29;;;;;;;72.25;30.83;;;;;;;;;;10388364;28;20021;-77
2022/12/08 02:26:49;;;;;;;76.63;32.03;;;;;;;;;;10383975;28;20554;-80
2022/12/08 02:32:07;;;;;;;40.33;16.02;;;;;;;;;;10381257;28;20044;-76
2022/12/08 02:37:07;;;;;;;;;;;;;;;;;;10382620;28;20053;-79
2022/12/08 02:42:08;;;;;;;48.75;19.02;;;;;;;;;;10377405;28;20291;-75
2022/12/08 02:47:18;;;;;;;50.22;23.90;;;;;;;;;;10375084;28;20474;-76
2022/12/08 02:52:18;;;;;;;58.50;25.80;;;;;;;;;;10381890;28;20037;-79
2022/12/08 02:57:24;;;;;;;61.33;26.58;;;;;;;;;;10380974;28;20036;-80
2022/12/08 03:02:31;;;;;;;42.45;19.63;;;;;;;;;;10380892;28;20380;-77
2022/12/08 03:07:39;;;;;;;44.92;19.52;;;;;;;;;;10380784;28;20025;-75
2022/12/08 03:12:41;;;;;;;;;;;;;;;;;;10373404;28;20031;-75
2022/12/08 03:17:44;;;;;;;48.90;22.33;;;;;;;;;;10330773;28;19928;-78
2022/12/08 03:22:44;;;;;;;49.13;22.42;;;;;;;;;;10323011;28;20026;-74
2022/12/08 03:27:45;;;;;;;52.08;21.65;;;;;;;;;;10324592;28;20034;-76
2022/12/08 03:32:49;;;;;;;44.53;22.07;;;;;;;;;;10322522;28;20033;-76
2022/12/08 03:37:49;;;;;;;51.97;20.30;;;;;;;;;;10323007;28;20368;-74
2022/12/08 03:42:49;;;;;;;49.93;21.63;;;;;;;;;;10318869;28;20038;-77
2022/12/08 03:47:51;;;;;;;43.63;19.57;;;;;;;;;;10323540;28;20061;-79
2022/12/08 03:52:52;;;;;;;45.10;21.27;;;;;;;;;;10322430;28;20099;-75
2022/12/08 03:57:52;;;;;;;54.10;20.98;;;;;;;;;;10322363;28;20034;-80
2022/12/08 04:02:52;;;;;;;53.47;21.92;;;;;;;;;;10322322;28;20022;-76
2022/12/08 04:07:55;;;;;;;51.27;21.90;;;;;;;;;;10326976;28;20140;-77
2022/12/08 04:12:56;;;;;;;38.53;17.02;;;;;;;;;;10325002;28;20018;-77
2022/12/08 04:17:56;;;;;;;36.80;16.97;;;;;;;;;;10338437;28;20053;-76
2022/12/08 04:22:56;;;;;;;30.93;13.33;;;;;;;;;;10328153;28;21184;-74
2022/12/08 04:27:58;;;;;;;28.38;13.55;;;;;;;;;;10324698;28;20057;-80
2022/12/08 04:32:58;;;;;;;26.48;11.93;;;;;;;;;;10321804;28;20042;-75
2022/12/08 04:37:58;;;;;;;34.30;13.35;;;;;;;;;;10321717;28;20030;-78
2022/12/08 04:42:58;;;;;;;33.23;15.77;;;;;;;;;;10319695;28;20140;-76
2022/12/08 04:47:59;;;;;;;31.48;14.85;;;;;;;;;;10320088;28;20564;-75
2022/12/08 04:53:00;;;;;;;24.10;12.63;;;;;;;;;;10319974;28;20483;-75
2022/12/08 04:58:00;;;;;;;23.33;12.00;;;;;;;;;;10306156;28;20030;-79
2022/12/08 05:03:07;;;;;;;23.45;11.05;;;;;;;;;;10311960;28;20109;-75
2022/12/08 05:08:09;;;;;;;25.58;12.25;;;;;;;;;;10315277;28;20087;-77
2022/12/08 05:13:09;;;;;;;26.77;11.18;;;;;;;;;;10307547;28;20038;-80
2022/12/08 05:18:10;;;;;;;30.13;12.50;;;;;;;;;;10306703;28;20065;-80
2022/12/08 05:23:10;;;;;;;32.97;13.55;;;;;;;;;;10300072;28;20506;-75
2022/12/08 05:28:10;;;;;;;29.55;14.73;;;;;;;;;;10318515;28;20085;-77
2022/12/08 05:33:10;;;;;;;29.60;14.30;;;;;;;;;;10315183;28;20113;-75
2022/12/08 05:38:11;;;;;;;35.75;16.48;;;;;;;;;;10302300;28;20026;-75
2022/12/08 05:43:12;;;;;;;31.38;15.77;;;;;;;;;;10317805;28;20029;-81
2022/12/08 05:48:12;;;;;;;31.77;15.05;;;;;;;;;;10307159;28;20031;-80
2022/12/08 05:53:13;;;;;;;32.17;14.55;;;;;;;;;;10318814;28;20018;-76
2022/12/08 05:58:17;;;;;;;35.25;16.30;;;;;;;;;;10318174;28;20030;-74
2022/12/08 06:03:18;;;;;;;30.38;16.20;;;;;;;;;;10313042;28;20397;-81
2022/12/08 06:08:19;;;;;;;42.60;17.67;;;;;;;;;;10311927;28;20130;-77
2022/12/08 06:13:19;;;;;;;40.97;19.80;;;;;;;;;;10307567;28;20034;-74
2022/12/08 06:18:19;;;;;;;36.15;17.23;;;;;;;;;;10331446;28;20082;-76
2022/12/08 06:23:20;;;;;;;47.60;18.15;;;;;;;;;;10339775;28;20105;-74
2022/12/08 06:28:20;;;;;;;42.13;19.83;;;;;;;;;;10321127;28;20035;-77
2022/12/08 06:33:20;;;;;;;46.17;22.20;;;;;;;;;;10322810;28;20034;-78
2022/12/08 06:38:20;;;;;;;59.55;22.75;;;;;;;;;;10317963;28;20702;-77
2022/12/08 06:43:22;;;;;;;49.97;23.75;;;;;;;;;;10313439;28;20480;-80
2022/12/08 06:48:22;;;;;;;54.22;26.30;;;;;;;;;;10299487;28;20127;-78
2022/12/08 06:53:23;;;;;;;61.45;25.65;;;;;;;;;;10301602;28;20676;-74
2022/12/08 06:58:23;;;;;;;60.72;28.90;;;;;;;;;;10308959;28;20423;-75
2022/12/08 07:03:23;;;;;;;58.47;26.90;;;;;;;;;;10308658;28;20567;-75
2022/12/08 07:08:23;;;;;;;48.22;23.80;;;;;;;;;;10308128;28;20473;-75
2022/12/08 07:13:24;;;;;;;50.47;21.70;;;;;;;;;;10306419;28;20145;-81
2022/12/08 07:18:24;;;;;;;51.50;22.90;;;;;;;;;;10299403;28;20112;-79
2022/12/08 07:23:24;;;;;;;62.60;25.27;;;;;;;;;;10299934;28;20034;-78
2022/12/08 07:28:24;;;;;;;54.55;26.13;;;;;;;;;;10307260;28;20031;-78
2022/12/08 07:33:25;;;;;;;71.35;31.35;;;;;;;;;;10307372;28;20102;-73
2022/12/08 07:38:26;;;;;;;66.80;28.40;;;;;;;;;;10308892;28;20040;-76
2022/12/08 07:43:26;;;;;;;73.00;33.00;;;;;;;;;;10300752;28;20026;-74
2022/12/08 07:48:26;;;;;;;81.55;32.75;;;;;;;;;;10303134;28;20031;-76
2022/12/08 07:53:27;;;;;;;73.47;32.53;;;;;;;;;;10302741;28;20031;-74
2022/12/08 07:58:27;;;;;;;68.47;29.83;;;;;;;;;;10300435;28;20456;-74
2022/12/08 08:03:27;;;;;;;77.78;31.45;;;;;;;;;;10304312;28;20049;-78
2022/12/08 08:08:27;;;;;;;68.15;29.63;;;;;;;;;;10307667;28;20065;-75
2022/12/08 08:13:28;;;;;;;60.08;26.35;;;;;;;;;;10314820;28;20050;-73
2022/12/08 08:18:28;;;;;;;59.03;25.23;;;;;;;;;;10313665;28;20051;-78
2022/12/08 08:23:28;;;;;;;54.75;23.65;;;;;;;;;;10315938;28;20488;-77
2022/12/08 08:28:29;;;;;;;46.47;22.27;;;;;;;;;;10310041;28;20083;-78
2022/12/08 08:33:31;;;;;;;49.92;22.35;;;;;;;;;;10311228;28;20045;-78
2022/12/08 08:38:32;;;;;;;46.70;22.05;;;;;;;;;;10323565;28;20031;-74
2022/12/08 08:43:35;;;;;;;46.17;20.25;;;;;;;;;;10325196;28;20030;-72
2022/12/08 08:48:35;;;;;;;44.28;18.90;;;;;;;;;;10323576;28;20053;-74
2022/12/08 08:53:35;;;;;;;42.57;20.03;;;;;;;;;;10310579;28;20105;-77
2022/12/08 08:58:36;;;;;;;47.38;20.75;;;;;;;;;;10312828;28;20711;-74
2022/12/08 09:03:36;;;;;;;47.37;20.07;;;;;;;;;;10303715;28;20093;-82
2022/12/08 09:08:36;;;;;;;42.60;18.17;;;;;;;;;;10298946;28;20408;-74
2022/12/08 09:13:37;;;;;;;39.38;17.70;;;;;;;;;;10307106;28;20404;-73
2022/12/08 09:18:37;;;;;;;33.67;15.40;;;;;;;;;;10294625;28;20057;-75
2022/12/08 09:23:38;;;;;;;45.10;16.07;;;;;;;;;;10315497;28;20023;-76
2022/12/08 09:28:38;;;;;;;24.33;12.75;;;;;;;;;;10308224;28;20301;-82
2022/12/08 09:33:39;;;;;;;24.57;10.70;;;;;;;;;;10311697;28;20125;-74
2022/12/08 09:38:39;;;;;;;21.60;10.05;;;;;;;;;;10303582;28;20294;-73
2022/12/08 09:43:50;;;;;;;25.02;10.63;;;;;;;;;;10306752;28;20023;-75
2022/12/08 09:48:56;;;;;;;24.38;11.10;;;;;;;;;;10306866;28;20022;-74
2022/12/08 09:54:19;;;;;;;28.38;11.35;;;;;;;;;;10301738;28;20034;-78
2022/12/08 09:59:33;;;;;;;25.55;10.85;;;;;;;;;;10296203;28;20086;-76
2022/12/08 10:04:35;;;;;;;21.38;9.45;;;;;;;;;;10312458;28;20352;-69
2022/12/08 10:09:41;;;;;;;22.35;11.05;;;;;;;;;;10294695;28;20452;-75
2022/12/08 10:14:43;;;;;;;28.33;11.30;;;;;;;;;;10317304;28;20069;-74
2022/12/08 10:19:44;;;;;;;27.70;11.30;;;;;;;;;;10371921;28;20048;-75
2022/12/08 10:24:50;;;;;;;23.00;10.18;;;;;;;;;;10378200;28;20021;-75
2022/12/08 10:29:52;;;;;;;25.35;12.73;;;;;;;;;;10361617;28;20047;-75
2022/12/08 10:34:58;;;;;;;26.80;15.60;;;;;;;;;;10368516;28;20056;-78
2022/12/08 10:40:07;;;;;;;39.60;18.20;;;;;;;;;;10385272;28;20021;-80
2022/12/08 10:45:08;;;;;;;38.92;17.67;;;;;;;;;;10358279;28;20025;-74
2022/12/08 10:50:08;;;;;;;41.42;19.27;;;;;;;;;;10370849;28;20026;-74
2022/12/08 10:55:16;;;;;;;43.87;17.80;;;;;;;;;;10373299;28;20435;-78
2022/12/08 11:00:26;;;;;;;33.60;16.57;;;;;;;;;;10366121;28;20029;-74
2022/12/08 11:05:30;;;;;;;38.60;17.05;;;;;;;;;;10368957;28;20264;-76
2022/12/08 11:10:42;;;;;;;37.25;17.63;;;;;;;;;;10380781;28;20033;-75
2022/12/08 11:15:43;;;;;;;40.45;17.02;;;;;;;;;;10358609;28;20045;-75
2022/12/08 11:20:43;;;;;;;40.53;18.23;;;;;;;;;;10377342;28;20044;-76
2022/12/08 11:25:44;;;;;;;45.20;18.35;;;;;;;;;;10372166;28;20430;-75
2022/12/08 11:30:46;;;;;;;41.17;16.80;;;;;;;;;;10378501;28;20176;-74
2022/12/08 11:35:50;;;;;;;33.05;13.95;;;;;;;;;;10367455;28;20032;-74
2022/12/08 11:40:56;;;;;;;36.20;13.40;;;;;;;;;;10380651;28;20033;-74
2022/12/08 11:46:01;;;;;;;30.45;13.30;;;;;;;;;;10380252;28;20079;-79
2022/12/08 11:51:07;;;;;;;24.70;11.05;;;;;;;;;;10374579;28;20025;-74
2022/12/08 11:56:30;;;;;;;25.30;11.73;;;;;;;;;;10370162;28;20141;-80
2022/12/08 12:01:31;;;;;;;26.77;11.00;;;;;;;;;;10367452;28;20037;-76
2022/12/08 12:06:31;;;;;;;16.65;8.10;;;;;;;;;;10370781;28;20028;-74
2022/12/08 12:17:41;;;;;;;23.95;10.65;;;;;;;;;;10254845;28;20049;-77
2022/12/08 12:22:43;;;;;;;22.50;10.82;;;;;;;;;;10390390;28;20040;-80
2022/12/08 12:27:44;;;;;;;23.45;9.82;;;;;;;;;;10360471;28;20037;-77
2022/12/08 12:32:47;;;;;;;24.13;8.80;;;;;;;;;;10376404;28;20379;-75
2022/12/08 12:37:48;;;;;;;21.58;11.02;;;;;;;;;;10379452;28;20586;-80
2022/12/08 12:43:11;;;;;;;19.23;7.93;;;;;;;;;;10389169;28;20018;-75
2022/12/08 12:48:13;;;;;;;28.17;10.98;;;;;;;;;;10386454;28;20408;-75
2022/12/08 12:53:19;;;;;;;21.67;10.60;;;;;;;;;;10386014;28;20028;-80
2022/12/08 12:58:28;;;;;;;20.17;9.48;;;;;;;;;;10386000;28;20091;-73
2022/12/08 13:03:28;;;;;;;28.00;10.98;;;;;;;;;;10385102;28;20495;-74
2022/12/08 13:08:29;;;;;;;21.20;9.45;;;;;;;;;;10383832;28;20048;-75
2022/12/08 13:13:30;;;;;;;23.83;12.02;;;;;;;;;;10382383;28;20030;-76
2022/12/08 13:18:37;;;;;;;22.13;9.43;;;;;;;;;;10384908;28;20128;-74
2022/12/08 13:23:48;;;;;;;17.90;8.55;;;;;;;;;;10385045;28;20484;-73
2022/12/08 13:28:59;;;;;;;24.52;10.27;;;;;;;;;;10385168;28;20029;-74
2022/12/08 13:34:03;;;;;;;29.80;12.43;;;;;;;;;;10385174;28;20028;-73
2022/12/08 13:39:04;;;;;;;21.38;11.13;;;;;;;;;;10402754;28;20399;-74
2022/12/08 13:44:06;;;;;;;24.15;10.27;;;;;;;;;;10384052;28;20052;-75
2022/12/08 13:49:07;;;;;;;20.92;10.32;;;;;;;;;;10362466;28;20513;-73
2022/12/08 13:54:26;;;;;;;25.30;10.80;;;;;;;;;;10384382;28;20594;-77
2022/12/08 13:59:33;;;;;;;29.92;11.98;;;;;;;;;;10396354;28;20099;-74
2022/12/08 14:04:33;;;;;;;30.13;10.02;;;;;;;;;;10383106;28;20017;-75
2022/12/08 14:09:35;;;;;;;31.77;10.45;;;;;;;;;;10404987;28;20026;-73
2022/12/08 14:14:43;;;;;;;25.77;12.45;;;;;;;;;;10398649;28;20041;-81
2022/12/08 14:19:44;;;;;;;;;;;;;;;;;;10392651;28;20522;-74
2022/12/08 14:24:51;;;;;;;26.73;11.57;;;;;;;;;;10387487;28;19912;-73
2022/12/08 14:29:54;;;;;;;30.08;12.13;;;;;;;;;;10382494;28;20018;-73
2022/12/08 14:35:07;;;;;;;31.88;12.00;;;;;;;;;;10389818;28;20075;-73
2022/12/08 14:40:10;;;;;;;38.65;12.55;;;;;;;;;;10400314;28;20048;-79
2022/12/08 14:45:11;;;;;;;29.60;13.23;;;;;;;;;;10382434;28;20021;-79
2022/12/08 14:50:30;;;;;;;29.92;13.13;;;;;;;;;;10399410;28;20097;-78
2022/12/08 14:55:35;;;;;;;28.63;12.57;;;;;;;;;;10389059;28;20467;-77
2022/12/08 15:00:43;;;;;;;24.58;12.45;;;;;;;;;;10382434;28;20021;-80
2022/12/08 15:05:43;;;;;;;34.85;13.43;;;;;;;;;;10379689;28;20484;-78
2022/12/08 15:10:47;;;;;;;29.63;12.37;;;;;;;;;;10381968;28;20356;-77
2022/12/08 15:15:53;;;;;;;31.38;12.82;;;;;;;;;;10389371;28;20054;-73
2022/12/08 15:20:55;;;;;;;30.73;12.77;;;;;;;;;;10387779;28;20566;-79
2022/12/08 15:25:57;;;;;;;30.95;12.63;;;;;;;;;;10363897;28;20025;-80
2022/12/08 15:30:58;;;;;;;34.47;15.07;;;;;;;;;;10381166;28;20072;-75
2022/12/08 15:35:58;;;;;;;37.35;15.43;;;;;;;;;;10378489;28;20571;-73
2022/12/08 15:40:58;;;;;;;35.83;16.05;;;;;;;;;;10388043;28;20032;-82
2022/12/08 15:45:59;;;;;;;43.63;15.57;;;;;;;;;;10388968;28;20547;-74
2022/12/08 15:50:59;;;;;;;46.58;16.35;;;;;;;;;;10388440;28;20029;-73
2022/12/08 15:56:02;;;;;;;45.92;19.25;;;;;;;;;;10387456;28;20099;-79
2022/12/08 16:01:03;;;;;;;49.75;18.85;;;;;;;;;;10388316;28;20094;-74
2022/12/08 16:06:04;;;;;;;38.33;17.30;;;;;;;;;;10387836;28;20025;-74
2022/12/08 16:16:25;;;;;;;37.67;16.80;;;;;;;;;;10405628;28;20285;-74
2022/12/08 16:21:26;;;;;;;48.80;18.55;;;;;;;;;;10380827;28;20268;-74
2022/12/08 16:26:26;;;;;;;43.40;17.65;;;;;;;;;;10374997;28;20040;-75
2022/12/08 16:31:27;;;;;;;46.63;20.27;;;;;;;;;;10380499;28;20481;-76
2022/12/08 16:36:27;;;;;;;48.55;18.85;;;;;;;;;;10382959;28;20123;-76
2022/12/08 16:46:46;;;;;;;46.67;19.35;;;;;;;;;;10389636;28;20034;-74
2022/12/08 16:51:46;;;;;;;41.47;18.92;;;;;;;;;;10366758;28;20030;-74
2022/12/08 16:56:46;;;;;;;32.80;14.80;;;;;;;;;;10372891;28;20505;-76
2022/12/08 17:01:47;;;;;;;26.58;11.75;;;;;;;;;;10389612;28;20475;-72
2022/12/08 17:06:49;;;;;;;25.88;9.93;;;;;;;;;;10390766;28;20527;-73
2022/12/08 17:11:49;;;;;;;23.45;11.23;;;;;;;;;;10366339;28;20049;-75
2022/12/08 17:16:50;;;;;;;35.13;11.88;;;;;;;;;;10370219;28;20275;-76
2022/12/08 17:21:50;;;;;;;28.48;11.25;;;;;;;;;;10371844;28;20041;-79
2022/12/08 17:26:51;;;;;;;26.17;10.32;;;;;;;;;;10394637;28;20025;-73
2022/12/08 17:31:52;;;;;;;27.27;9.27;;;;;;;;;;10373282;28;20045;-74
2022/12/08 17:36:52;;;;;;;19.47;8.90;;;;;;;;;;10385338;28;20127;-74
2022/12/08 17:41:52;;;;;;;18.67;8.67;;;;;;;;;;10387984;28;20026;-73
2022/12/08 17:46:52;;;;;;;22.95;9.25;;;;;;;;;;10362768;28;20076;-73
2022/12/08 17:51:54;;;;;;;31.60;10.37;;;;;;;;;;10345449;28;20065;-73
2022/12/08 17:56:57;;;;;;;24.20;8.95;;;;;;;;;;10365533;28;20049;-73
2022/12/08 18:01:58;;;;;;;25.63;10.88;;;;;;;;;;10377630;28;20152;-72
2022/12/08 18:07:00;;;;;;;29.63;11.40;;;;;;;;;;10351068;28;20026;-75
2022/12/08 18:12:00;;;;;;;28.23;13.68;;;;;;;;;;10383128;28;20246;-72
2022/12/08 18:17:00;;;;;;;35.25;13.43;;;;;;;;;;10382728;28;20058;-72
2022/12/08 18:22:00;;;;;;;27.88;11.90;;;;;;;;;;10390925;28;20045;-75
2022/12/08 18:27:01;;;;;;;21.45;9.02;;;;;;;;;;10389779;28;20502;-75
2022/12/08 18:32:01;;;;;;;25.85;10.27;;;;;;;;;;10373280;28;20029;-75
2022/12/08 18:37:01;;;;;;;24.07;10.30;;;;;;;;;;10362740;28;20108;-75
2022/12/08 18:42:21;;;;;;;20.57;10.17;;;;;;;;;;10366694;28;20021;-76
2022/12/08 18:47:23;;;;;;;15.60;7.30;;;;;;;;;;10360425;28;20261;-77
2022/12/08 18:52:23;;;;;;;22.23;7.82;;;;;;;;;;10359647;28;20053;-74
2022/12/08 18:57:24;;;;;;;14.43;8.25;;;;;;;;;;10345961;28;20129;-75
2022/12/08 19:02:24;;;;;;;16.13;8.38;;;;;;;;;;10375437;28;20029;-73
2022/12/08 19:07:24;;;;;;;18.17;8.50;;;;;;;;;;10373357;28;20582;-76
2022/12/08 19:12:25;;;;;;;23.27;10.57;;;;;;;;;;10357703;28;20112;-78
2022/12/08 19:17:28;;;;;;;16.77;9.05;;;;;;;;;;10366705;28;20049;-75
2022/12/08 19:22:28;;;;;;;24.00;8.88;;;;;;;;;;10343840;28;20038;-76
2022/12/08 19:27:29;;;;;;;17.52;8.73;;;;;;;;;;10361027;28;20021;-74
2022/12/08 19:32:29;;;;;;;23.27;8.70;;;;;;;;;;10373334;28;20041;-75
2022/12/08 19:37:30;;;;;;;23.15;9.23;;;;;;;;;;10354468;28;20038;-80
2022/12/08 19:47:49;;;;;;;19.42;9.57;;;;;;;;;;10367940;28;20022;-75
2022/12/08 19:52:49;;;;;;;17.77;9.13;;;;;;;;;;10373646;28;20412;-75
2022/12/08 19:57:50;;;;;;;16.95;8.82;;;;;;;;;;10365781;28;20403;-73
2022/12/08 20:02:50;;;;;;;21.38;9.63;;;;;;;;;;10340009;28;20455;-73
2022/12/08 20:07:54;;;;;;;21.40;10.70;;;;;;;;;;10361642;28;20493;-74
2022/12/08 20:13:39;;;;;;;22.77;11.15;;;;;;;;;;10373061;28;20025;-77
2022/12/08 20:18:16;;;;;;;17.90;10.07;;;;;;;;;;10383124;28;20128;-74
2022/12/08 20:23:16;;;;;;;24.73;10.43;;;;;;;;;;10347895;28;20022;-77
2022/12/08 20:28:18;;;;;;;20.42;9.82;;;;;;;;;;10383678;28;20538;-73
2022/12/08 20:33:18;;;;;;;21.83;11.25;;;;;;;;;;10397566;28;20030;-80
2022/12/08 20:38:18;;;;;;;21.20;9.75;;;;;;;;;;10378176;28;20022;-73
2022/12/08 20:43:18;;;;;;;21.33;10.75;;;;;;;;;;10378104;28;20366;-76
2022/12/08 20:48:20;;;;;;;21.97;12.03;;;;;;;;;;10366933;28;20025;-73
2022/12/08 20:53:21;;;;;;;24.67;11.93;;;;;;;;;;10367682;28;20113;-73
2022/12/08 20:58:21;;;;;;;27.73;11.38;;;;;;;;;;10368132;28;20483;-74
2022/12/08 21:03:21;;;;;;;28.60;9.90;;;;;;;;;;10355531;28;20025;-73
2022/12/08 21:08:24;;;;;;;21.40;8.60;;;;;;;;;;10345055;28;20853;-74
2022/12/08 21:13:24;;;;;;;21.45;8.85;;;;;;;;;;10369222;28;20026;-75
2022/12/08 21:18:25;;;;;;;17.33;8.93;;;;;;;;;;10358480;28;20110;-71
2022/12/08 21:23:25;;;;;;;24.02;9.27;;;;;;;;;;10395808;28;20060;-76
2022/12/08 21:28:25;;;;;;;27.17;10.63;;;;;;;;;;10376900;28;20112;-73
2022/12/08 21:33:25;;;;;;;27.10;11.10;;;;;;;;;;10354591;28;20021;-73
2022/12/08 21:38:26;;;;;;;24.25;11.13;;;;;;;;;;10355395;28;20053;-79
2022/12/08 21:43:26;;;;;;;21.40;10.32;;;;;;;;;;10349976;28;20026;-78
2022/12/08 21:48:26;;;;;;;25.05;10.40;;;;;;;;;;10359530;28;20053;-78
2022/12/08 21:53:28;;;;;;;21.40;11.18;;;;;;;;;;10350962;28;20025;-79
2022/12/08 21:58:30;;;;;;;26.25;11.07;;;;;;;;;;10351072;28;20454;-77
2022/12/08 22:03:31;;;;;;;22.88;11.52;;;;;;;;;;10370109;28;20762;-78
2022/12/08 22:08:31;;;;;;;20.20;10.63;;;;;;;;;;10378718;28;20025;-73
2022/12/08 22:13:35;;;;;;;22.17;11.63;;;;;;;;;;10377056;28;20021;-82
2022/12/08 22:18:36;;;;;;;25.42;11.52;;;;;;;;;;10312944;28;20445;-75
2022/12/08 22:23:36;;;;;;;21.23;10.45;;;;;;;;;;10296531;28;20097;-74
2022/12/08 22:28:38;;;;;;;24.90;11.30;;;;;;;;;;10317056;28;20022;-77
2022/12/08 22:33:39;;;;;;;23.35;11.32;;;;;;;;;;10313602;28;20022;-74
2022/12/08 22:38:39;;;;;;;24.15;11.10;;;;;;;;;;10318105;28;20448;-78
2022/12/08 22:43:40;;;;;;;29.43;13.47;;;;;;;;;;10316694;28;20507;-78
2022/12/08 22:48:40;;;;;;;29.13;12.43;;;;;;;;;;10317153;28;20277;-73
2022/12/08 22:53:41;;;;;;;27.35;13.23;;;;;;;;;;10293143;28;20036;-75
2022/12/08 22:58:41;;;;;;;27.50;13.37;;;;;;;;;;10278586;28;20476;-74
2022/12/08 23:03:41;;;;;;;23.73;12.88;;;;;;;;;;10301783;28;20053;-74
2022/12/08 23:08:43;;;;;;;25.60;11.68;;;;;;;;;;10285054;28;20105;-77
2022/12/08 23:13:43;;;;;;;21.83;11.07;;;;;;;;;;10318567;28;20022;-78
2022/12/08 23:18:44;;;;;;;28.75;10.80;;;;;;;;;;10317379;28;20046;-74
2022/12/08 23:23:44;;;;;;;27.38;11.48;;;;;;;;;;10321039;28;20519;-77
2022/12/08 23:28:45;;;;;;;24.73;10.47;;;;;;;;;;10320847;28;20026;-75
2022/12/08 23:33:45;;;;;;;29.17;10.57;;;;;;;;;;10321346;28;20265;-73
2022/12/08 23:38:46;;;;;;;23.80;11.27;;;;;;;;;;10326073;28;20423;-74
2022/12/08 23:43:48;;;;;;;21.80;10.43;;;;;;;;;;10328026;28;20164;-74
2022/12/08 23:48:49;;;;;;;24.73;11.52;;;;;;;;;;10325632;28;20027;-74
2022/12/08 23:53:49;;;;;;;23.63;11.35;;;;;;;;;;10325389;28;20030;-74
2022/12/08 23:58:49;;;;;;;19.70;10.65;;;;;;;;;;10325485;28;20022;-73
